createdAt,value
2022-08-28T00:00:39.768Z,96.80
2022-08-28T00:05:41.752Z,97.61
2022-08-28T00:10:43.528Z,97.73
2022-08-28T00:15:45.560Z,98.62
2022-08-28T00:20:47.663Z,99.03
2022-08-28T00:25:49.370Z,98.42
2022-08-28T00:30:52.549Z,98.98
2022-08-28T00:35:54.842Z,100.00
2022-08-28T00:40:59.890Z,100.00
2022-08-28T00:46:02.575Z,100.00
2022-08-28T00:51:23.220Z,100.00
2022-08-28T00:56:24.888Z,100.00
2022-08-28T01:01:26.558Z,100.00
2022-08-28T01:06:28.252Z,100.00
2022-08-28T01:11:29.917Z,100.00
2022-08-28T01:16:33.745Z,100.00
2022-08-28T01:21:49.437Z,100.00
2022-08-28T01:26:51.123Z,100.00
2022-08-28T01:31:52.791Z,100.00
2022-08-28T01:36:54.468Z,100.00
2022-08-28T01:41:56.234Z,100.00
2022-08-28T01:46:58.548Z,100.00
2022-08-28T01:52:00.672Z,100.00
2022-08-28T01:57:05.136Z,100.00
2022-08-28T02:02:06.894Z,100.00
2022-08-28T02:07:08.604Z,100.00
2022-08-28T02:12:10.358Z,100.00
2022-08-28T02:17:12.831Z,100.00
2022-08-28T02:22:14.520Z,100.00
2022-08-28T02:27:16.219Z,100.00
2022-08-28T02:32:18.535Z,100.00
2022-08-28T02:37:21.470Z,100.00
2022-08-28T02:42:23.160Z,100.00
2022-08-28T02:47:24.813Z,100.00
2022-08-28T02:52:26.972Z,100.00
2022-08-28T02:57:29.909Z,100.00
2022-08-28T03:02:31.804Z,100.00
2022-08-28T03:07:33.554Z,100.00
2022-08-28T03:12:35.481Z,100.00
2022-08-28T03:17:37.146Z,100.00
2022-08-28T03:22:57.261Z,100.00
2022-08-28T03:27:58.952Z,100.00
2022-08-28T03:33:01.128Z,100.00
2022-08-28T03:38:03.127Z,100.00
2022-08-28T03:43:04.818Z,100.00
2022-08-28T03:48:08.885Z,100.00
2022-08-28T03:53:11.068Z,100.00
2022-08-28T03:58:18.800Z,100.00
2022-08-28T04:03:21.450Z,100.00
2022-08-28T04:08:23.444Z,100.00
2022-08-28T04:13:25.187Z,100.00
2022-08-28T04:18:27.516Z,100.00
2022-08-28T04:23:29.719Z,100.00
2022-08-28T04:28:32.580Z,100.00
2022-08-28T04:33:34.344Z,100.00
2022-08-28T04:38:39.276Z,100.00
2022-08-28T04:43:44.774Z,100.00
2022-08-28T04:48:46.481Z,100.00
2022-08-28T04:53:48.157Z,100.00
2022-08-28T04:58:49.863Z,100.00
2022-08-28T05:03:57.711Z,100.00
2022-08-28T05:09:00.642Z,100.00
2022-08-28T05:14:04.433Z,100.00
2022-08-28T05:19:06.356Z,100.00
2022-08-28T05:24:08.791Z,100.00
2022-08-28T05:29:10.540Z,100.00
2022-08-28T05:34:12.208Z,100.00
2022-08-28T05:39:13.887Z,100.00
2022-08-28T05:44:16.350Z,100.00
2022-08-28T05:49:18.946Z,100.00
2022-08-28T05:54:20.612Z,100.00
2022-08-28T05:59:22.285Z,100.00
2022-08-28T06:04:26.657Z,100.00
2022-08-28T06:09:29.921Z,100.00
2022-08-28T06:14:31.928Z,100.00
2022-08-28T06:19:37.199Z,100.00
2022-08-28T06:24:41.109Z,100.00
2022-08-28T06:29:44.617Z,100.00
2022-08-28T06:34:46.276Z,100.00
2022-08-28T06:39:47.940Z,100.00
2022-08-28T06:44:49.613Z,100.00
2022-08-28T06:49:51.309Z,100.00
2022-08-28T06:54:55.444Z,100.00
2022-08-28T06:59:57.868Z,100.00
2022-08-28T07:05:00.387Z,99.17
2022-08-28T07:10:02.066Z,97.22
2022-08-28T07:15:04.884Z,95.35
2022-08-28T07:20:07.246Z,95.41
2022-08-28T07:25:09.341Z,94.03
2022-08-28T07:30:13.108Z,93.46
2022-08-28T07:35:16.157Z,94.33
2022-08-28T07:40:20.109Z,93.03
2022-08-28T07:45:21.903Z,92.10
2022-08-28T07:50:23.614Z,92.42
2022-08-28T07:55:27.544Z,90.44
2022-08-28T08:00:30.142Z,88.45
2022-08-28T08:05:31.821Z,86.47
2022-08-28T08:10:34.283Z,85.79
2022-08-28T08:15:36.130Z,83.95
2022-08-28T08:20:38.417Z,83.60
2022-08-28T08:25:40.132Z,82.37
2022-08-28T08:30:41.823Z,81.29
2022-08-28T08:35:43.552Z,81.97
2022-08-28T08:40:45.531Z,81.19
2022-08-28T08:45:47.283Z,79.94
2022-08-28T08:50:48.961Z,79.17
2022-08-28T08:55:52.140Z,76.88
2022-08-28T09:00:58.661Z,77.11
2022-08-28T09:06:02.256Z,77.29
2022-08-28T09:11:19.677Z,76.76
2022-08-28T09:16:28.892Z,77.15
2022-08-28T09:21:35.163Z,77.19
2022-08-28T09:26:36.854Z,75.09
2022-08-28T09:31:39.238Z,74.57
2022-08-28T09:36:40.908Z,73.47
2022-08-28T09:42:32.670Z,74.12
2022-08-28T09:47:56.785Z,73.04
2022-08-28T09:53:09.086Z,72.63
2022-08-28T09:58:10.761Z,72.26
2022-08-28T10:03:31.435Z,70.86
2022-08-28T10:08:50.580Z,69.67
2022-08-28T10:14:28.622Z,69.45
2022-08-28T10:19:59.468Z,68.52
2022-08-28T10:25:28.902Z,69.22
2022-08-28T10:30:30.825Z,67.25
2022-08-28T10:35:52.092Z,67.55
2022-08-28T10:41:03.329Z,66.81
2022-08-28T10:46:08.674Z,66.52
2022-08-28T10:51:35.415Z,64.77
2022-08-28T10:56:56.671Z,64.77
2022-08-28T11:01:58.563Z,63.63
2022-08-28T11:07:03.535Z,65.02
2022-08-28T11:12:07.456Z,63.40
2022-08-28T11:17:33.438Z,62.35
2022-08-28T11:22:55.255Z,61.00
2022-08-28T11:28:36.897Z,61.06
2022-08-28T11:33:40.705Z,61.46
2022-08-28T11:38:42.224Z,60.88
2022-08-28T11:43:44.927Z,60.25
2022-08-28T11:48:51.689Z,58.81
2022-08-28T11:54:13.609Z,57.75
2022-08-28T11:59:35.618Z,57.43
2022-08-28T12:04:41.761Z,55.11
2022-08-28T12:09:45.144Z,53.74
2022-08-28T12:14:46.641Z,53.09
2022-08-28T12:20:10.778Z,51.83
2022-08-28T12:25:24.512Z,49.59
2022-08-28T12:30:44.242Z,50.10
2022-08-28T12:35:46.105Z,49.25
2022-08-28T12:40:53.417Z,48.64
2022-08-28T12:45:56.333Z,48.05
2022-08-28T12:51:05.805Z,47.60
2022-08-28T12:56:11.491Z,47.77
2022-08-28T13:01:32.505Z,46.39
2022-08-28T13:06:36.530Z,46.98
2022-08-28T13:11:38.656Z,45.19
2022-08-28T13:16:42.144Z,45.17
2022-08-28T13:21:46.548Z,45.41
2022-08-28T13:26:49.330Z,45.66
2022-08-28T13:32:00.760Z,46.23
2022-08-28T13:37:20.245Z,44.78
2022-08-28T13:42:22.547Z,44.52
2022-08-28T13:47:25.298Z,45.62
2022-08-28T13:52:27.164Z,47.13
2022-08-28T13:57:28.940Z,46.96
2022-08-28T14:02:48.934Z,46.98
2022-08-28T14:07:51.004Z,46.49
2022-08-28T14:12:52.703Z,44.20
2022-08-28T14:17:54.405Z,41.83
2022-08-28T14:22:56.127Z,41.04
2022-08-28T14:27:57.856Z,41.51
2022-08-28T14:32:59.538Z,42.25
2022-08-28T14:38:02.414Z,41.67
2022-08-28T14:43:05.496Z,42.86
2022-08-28T14:48:07.250Z,42.93
2022-08-28T14:53:09.670Z,41.24
2022-08-28T14:58:11.616Z,40.10
2022-08-28T15:03:13.762Z,39.03
2022-08-28T15:08:16.241Z,39.21
2022-08-28T15:13:17.909Z,37.89
2022-08-28T15:18:23.827Z,38.54
2022-08-28T15:23:25.516Z,39.04
2022-08-28T15:28:27.185Z,38.77
2022-08-28T15:33:28.840Z,40.41
2022-08-28T15:38:53.334Z,40.17
2022-08-28T15:44:00.306Z,39.62
2022-08-28T15:49:03.916Z,39.93
2022-08-28T15:54:10.337Z,40.39
2022-08-28T15:59:12.214Z,40.43
2022-08-28T16:04:15.008Z,41.05
2022-08-28T16:09:16.674Z,41.38
2022-08-28T16:14:21.034Z,42.74
2022-08-28T16:19:22.873Z,43.54
2022-08-28T16:24:24.542Z,43.51
2022-08-28T16:29:26.310Z,42.10
2022-08-28T16:34:31.351Z,42.95
2022-08-28T16:39:33.336Z,43.01
2022-08-28T16:44:35.183Z,43.68
2022-08-28T16:49:36.849Z,43.61
2022-08-28T16:54:38.537Z,43.98
2022-08-28T16:59:52.977Z,43.96
2022-08-28T17:04:55.299Z,43.40
2022-08-28T17:09:56.968Z,43.82
2022-08-28T17:14:58.616Z,44.12
2022-08-28T17:20:00.288Z,44.64
2022-08-28T17:25:07.652Z,44.45
2022-08-28T17:30:10.957Z,44.69
2022-08-28T17:35:12.721Z,45.31
2022-08-28T17:40:15.697Z,46.22
2022-08-28T17:45:17.473Z,46.98
2022-08-28T17:50:19.251Z,47.50
2022-08-28T17:55:21.080Z,48.30
2022-08-28T18:00:22.972Z,49.14
2022-08-28T18:05:24.740Z,49.86
2022-08-28T18:10:27.633Z,50.92
2022-08-28T18:15:29.328Z,52.06
2022-08-28T18:20:31.026Z,52.86
2022-08-28T18:25:41.693Z,53.52
2022-08-28T18:30:46.030Z,54.29
2022-08-28T18:35:49.411Z,55.21
2022-08-28T18:40:53.427Z,55.43
2022-08-28T18:45:55.508Z,56.78
2022-08-28T18:50:57.437Z,57.70
2022-08-28T18:55:59.139Z,58.32
2022-08-28T19:01:04.423Z,58.54
2022-08-28T19:06:06.507Z,59.46
2022-08-28T19:11:09.488Z,59.60
2022-08-28T19:16:16.998Z,60.52
2022-08-28T19:21:19.804Z,60.99
2022-08-28T19:26:21.527Z,61.99
2022-08-28T19:31:24.305Z,62.83
2022-08-28T19:36:27.423Z,63.59
2022-08-28T19:41:29.817Z,63.90
2022-08-28T19:46:31.635Z,64.47
2022-08-28T19:51:34.649Z,65.46
2022-08-28T19:56:37.281Z,65.98
2022-08-28T20:01:41.433Z,66.83
2022-08-28T20:06:44.050Z,67.32
2022-08-28T20:11:46.879Z,68.21
2022-08-28T20:16:50.775Z,68.93
2022-08-28T20:21:52.608Z,69.51
2022-08-28T20:26:54.312Z,70.10
2022-08-28T20:31:55.968Z,71.07
2022-08-28T20:36:57.632Z,71.07
2022-08-28T20:41:59.319Z,71.75
2022-08-28T20:47:01.315Z,71.94
2022-08-28T20:52:03.108Z,72.02
2022-08-28T20:57:07.786Z,72.49
2022-08-28T21:02:11.599Z,73.28
2022-08-28T21:07:14.173Z,73.31
2022-08-28T21:12:16.589Z,73.83
2022-08-28T21:17:28.712Z,73.94
2022-08-28T21:22:32.939Z,74.75
2022-08-28T21:27:36.444Z,75.20
2022-08-28T21:32:38.149Z,76.19
2022-08-28T21:37:40.890Z,76.74
2022-08-28T21:42:42.657Z,77.27
2022-08-28T21:47:44.386Z,77.63
2022-08-28T21:52:46.064Z,78.09
2022-08-28T21:57:47.721Z,78.47
2022-08-28T22:02:49.963Z,78.61
2022-08-28T22:07:51.902Z,79.36
2022-08-28T22:12:53.571Z,79.47
2022-08-28T22:17:55.241Z,80.24
2022-08-28T22:23:11.750Z,80.21
2022-08-28T22:28:14.239Z,80.49
2022-08-28T22:33:16.044Z,80.98
2022-08-28T22:38:18.536Z,81.15
2022-08-28T22:43:20.350Z,81.53
2022-08-28T22:48:22.006Z,82.13
2022-08-28T22:53:23.662Z,82.40
2022-08-28T22:58:25.359Z,82.38
2022-08-28T23:03:27.252Z,82.88
2022-08-28T23:08:33.733Z,83.21
2022-08-28T23:13:35.763Z,83.91
2022-08-28T23:19:03.969Z,84.17
2022-08-28T23:23:59.326Z,84.44
2022-08-28T23:29:01.030Z,85.44
2022-08-28T23:34:02.959Z,85.88
2022-08-28T23:39:06.632Z,86.08
2022-08-28T23:44:09.173Z,86.68
2022-08-28T23:49:11.506Z,86.42
2022-08-28T23:54:13.172Z,86.94
2022-08-28T23:59:14.827Z,87.03
